ESGR/KVB METAR and TAF weather

Enter ICAO airport designator
Station Type Date Time Source
ESGR METAR 2021/04/13 06:20 UTC NOAA

ESGR 130620Z AUTO 20009KT 9999 BKN011/// OVC039/// 02/00 Q1015


Station Type Date Time Source
ESGR Decoded METAR 2021/04/13 06:20 UTC NOAA

Skovde Flygplats, Sweden (ESGR) 58-27N 013-58E 105M
Apr 13, 2021 - 02:20 AM EDT / 2021.04.13 0620 UTC
Wind: from the SSW (200 degrees) at 10 MPH (9 KT):0
Visibility: greater than 7 mile(s):0
Sky conditions: overcast
Temperature: 35 F (2 C)
Windchill: 26 F (-3 C):1
Dew Point: 32 F (0 C)
Relative Humidity: 86%
Pressure (altimeter): 29.97 in. Hg (1015 hPa)
ob: ESGR 130620Z AUTO 20009KT 9999 BKN011/// OVC039/// 02/00 Q1015
cycle: 6

Station Type Date Time Source
ESGR TAF 2009/06/28 04:50 UTC NOAA

METAR ESGR 280450Z AUTO VRB02KT 9999NDV NCD 17/12 Q1020

Example: see airport list